METAR Data
IDs: Format: Raw Decoded Include TAF

Data at: 1354 UTC 20 Oct 2021

METAR for:KLRD (Laredo Intl Apt, TX, US)
Text:KLRD 201256Z 08004KT 10SM CLR 21/19 A3004 RMK AO2 SLP170 T02060194
Temperature: 20.6°C ( 69°F)
Dewpoint: 19.4°C ( 67°F) [RH = 93%]
Pressure (altimeter):30.04 inches Hg (1017.4 mb) [Sea level pressure: 1017.0 mb]
Winds:from the E (80 degrees) at 5 MPH (4 knots; 2.1 m/s)
Visibility:10 or more sm (16+ km)
Ceiling:at least 12,000 feet AGL
Clouds:sky clear below 12,000 feet AGL